createdAt,value
2019-02-05T00:00:26.089Z,61.1
2019-02-05T00:01:15.024Z,61.1
2019-02-05T00:02:05.904Z,61
2019-02-05T00:02:55.390Z,61
2019-02-05T00:03:45.754Z,61
2019-02-05T00:04:34.751Z,61
2019-02-05T00:05:25.574Z,61
2019-02-05T00:06:16.071Z,60.9
2019-02-05T00:07:05.691Z,60.9
2019-02-05T00:07:56.024Z,60.9
2019-02-05T00:08:46.369Z,60.9
2019-02-05T00:09:37.651Z,60.9
2019-02-05T00:10:26.211Z,60.9
2019-02-05T00:11:16.251Z,60.9
2019-02-05T00:12:06.606Z,60.9
2019-02-05T00:12:56.114Z,60.9
2019-02-05T00:13:46.168Z,60.9
2019-02-05T00:14:36.762Z,60.9
2019-02-05T00:15:27.153Z,60.9
2019-02-05T00:16:16.911Z,60.9
2019-02-05T00:17:06.935Z,60.9
2019-02-05T00:17:56.464Z,60.9
2019-02-05T00:18:47.602Z,60.9
2019-02-05T00:19:36.575Z,60.8
2019-02-05T00:20:26.431Z,60.8
2019-02-05T00:21:16.433Z,60.8
2019-02-05T00:22:06.745Z,60.8
2019-02-05T00:22:56.522Z,60.8
2019-02-05T00:23:46.910Z,60.8
2019-02-05T00:24:37.667Z,60.8
2019-02-05T00:25:26.990Z,60.8
2019-02-05T00:26:17.591Z,60.8
2019-02-05T00:27:07.667Z,60.8
2019-02-05T00:27:59.274Z,60.8
2019-02-05T00:28:47.783Z,60.8
2019-02-05T00:29:37.390Z,60.8
2019-02-05T00:30:27.651Z,60.8
2019-02-05T00:31:17.780Z,60.7
2019-02-05T00:32:07.740Z,60.7
2019-02-05T00:32:57.582Z,60.7
2019-02-05T00:33:48.304Z,60.7
2019-02-05T00:34:37.369Z,60.7
2019-02-05T00:35:27.979Z,60.7
2019-02-05T00:36:17.469Z,60.7
2019-02-05T00:37:09.911Z,60.7
2019-02-05T00:37:57.871Z,60.7
2019-02-05T00:38:48.189Z,60.6
2019-02-05T00:39:38.247Z,60.6
2019-02-05T00:40:28.589Z,60.6
2019-02-05T00:41:18.661Z,60.6
2019-02-05T00:42:08.409Z,60.6
2019-02-05T00:42:58.912Z,60.6
2019-02-05T00:43:48.826Z,60.6
2019-02-05T00:44:38.706Z,60.6
2019-02-05T00:45:28.679Z,60.6
2019-02-05T00:46:18.394Z,60.6
2019-02-05T00:47:08.574Z,60.6
2019-02-05T00:47:59.219Z,60.6
2019-02-05T00:48:48.616Z,60.6
2019-02-05T00:49:38.968Z,60.6
2019-02-05T00:50:29.018Z,60.5
2019-02-05T00:51:19.070Z,60.6
2019-02-05T00:52:09.856Z,60.5
2019-02-05T00:52:58.658Z,60.5
2019-02-05T00:53:49.536Z,60.5
2019-02-05T00:54:39.035Z,60.5
2019-02-05T00:55:29.005Z,60.4
2019-02-05T00:56:21.622Z,60.4
2019-02-05T00:57:09.756Z,60.4
2019-02-05T00:57:59.003Z,60.4
2019-02-05T00:58:49.880Z,60.4
2019-02-05T00:59:39.426Z,60.4
2019-02-05T01:00:29.776Z,60.4
2019-02-05T01:01:20.878Z,60.4
2019-02-05T01:02:09.850Z,60.4
2019-02-05T01:03:00.313Z,60.4
2019-02-05T01:03:49.560Z,60.4
2019-02-05T01:04:41.238Z,60.4
2019-02-05T01:05:30.085Z,60.4
2019-02-05T01:06:20.398Z,60.4
2019-02-05T01:07:10.185Z,60.4
2019-02-05T01:08:00.542Z,60.4
2019-02-05T01:08:50.307Z,60.3
2019-02-05T01:09:40.091Z,60.3
2019-02-05T01:10:31.970Z,60.3
2019-02-05T01:11:20.767Z,60.3
2019-02-05T01:12:10.544Z,60.3
2019-02-05T01:13:00.117Z,60.3
2019-02-05T01:13:50.744Z,60.3
2019-02-05T01:14:40.455Z,60.3
2019-02-05T01:15:30.045Z,60.3
2019-02-05T01:16:21.228Z,60.3
2019-02-05T01:17:10.360Z,60.3
2019-02-05T01:18:01.241Z,60.3
2019-02-05T01:18:51.291Z,60.3
2019-02-05T01:19:41.564Z,60.3
2019-02-05T01:20:31.137Z,60.2
2019-02-05T01:21:20.922Z,60.2
2019-02-05T01:22:11.529Z,60.2
2019-02-05T01:23:01.143Z,60.2
2019-02-05T01:23:51.371Z,60.2
2019-02-05T01:24:41.424Z,60.2
2019-02-05T01:25:31.498Z,60.2
2019-02-05T01:26:35.003Z,60.1
2019-02-05T01:27:10.785Z,60.1
2019-02-05T01:28:01.675Z,60.1
2019-02-05T01:28:52.809Z,60.1
2019-02-05T01:29:41.799Z,60.1
2019-02-05T01:30:31.873Z,60.1
2019-02-05T01:31:22.163Z,60.1
2019-02-05T01:32:13.991Z,60.1
2019-02-05T01:33:02.146Z,60.1
2019-02-05T01:33:52.078Z,60.1
2019-02-05T01:34:42.147Z,60.1
2019-02-05T01:35:31.921Z,60.1
2019-02-05T01:36:22.303Z,60.1
2019-02-05T01:37:12.695Z,60.1
2019-02-05T01:38:02.609Z,60
2019-02-05T01:38:51.863Z,60
2019-02-05T01:39:41.996Z,60
2019-02-05T01:40:32.835Z,60
2019-02-05T01:41:24.605Z,60
2019-02-05T01:42:12.108Z,60
2019-02-05T01:43:02.735Z,60
2019-02-05T01:43:51.730Z,60
2019-02-05T01:44:42.951Z,59.9
2019-02-05T01:45:32.615Z,59.9
2019-02-05T01:46:23.235Z,59.9
2019-02-05T01:47:13.385Z,59.9
2019-02-05T01:48:02.035Z,59.9
2019-02-05T01:48:53.144Z,59.9
2019-02-05T01:49:43.212Z,59.9
2019-02-05T01:50:33.519Z,59.9
2019-02-05T01:51:23.293Z,59.9
2019-02-05T01:52:13.085Z,59.9
2019-02-05T01:53:02.650Z,59.9
2019-02-05T01:53:53.758Z,59.9
2019-02-05T01:54:43.263Z,59.9
2019-02-05T01:55:33.330Z,59.9
2019-02-05T01:56:23.682Z,59.9
2019-02-05T01:57:13.709Z,59.8
2019-02-05T01:58:03.519Z,59.8
2019-02-05T01:58:53.582Z,59.8
2019-02-05T01:59:44.952Z,59.8
2019-02-05T02:00:34.582Z,59.8
2019-02-05T02:01:24.029Z,59.8
2019-02-05T02:02:13.254Z,59.8
2019-02-05T02:03:04.434Z,59.8
2019-02-05T02:03:54.189Z,59.8
2019-02-05T02:04:43.966Z,59.8
2019-02-05T02:05:35.344Z,59.8
2019-02-05T02:06:23.610Z,59.8
2019-02-05T02:07:14.525Z,59.7
2019-02-05T02:08:04.634Z,59.8
2019-02-05T02:08:54.297Z,59.8
2019-02-05T02:09:44.136Z,59.7
2019-02-05T02:10:34.571Z,59.7
2019-02-05T02:11:24.276Z,59.7
2019-02-05T02:12:15.051Z,59.7
2019-02-05T02:13:04.063Z,59.7
2019-02-05T02:13:54.871Z,59.7
2019-02-05T02:14:46.921Z,59.6
2019-02-05T02:15:35.000Z,59.6
2019-02-05T02:16:25.350Z,59.6
2019-02-05T02:17:14.843Z,59.6
2019-02-05T02:18:05.168Z,59.6
2019-02-05T02:18:54.228Z,59.6
2019-02-05T02:19:45.299Z,59.6
2019-02-05T02:20:35.123Z,59.6
2019-02-05T02:21:25.115Z,59.6
2019-02-05T02:22:15.522Z,59.6
2019-02-05T02:23:05.895Z,59.6
2019-02-05T02:23:58.075Z,59.6
2019-02-05T02:24:45.762Z,59.6
2019-02-05T02:25:35.975Z,59.6
2019-02-05T02:26:25.248Z,59.5
2019-02-05T02:27:15.822Z,59.5
2019-02-05T02:28:05.888Z,59.5
2019-02-05T02:28:55.391Z,59.5
2019-02-05T02:29:46.412Z,59.5
2019-02-05T02:30:36.112Z,59.5
2019-02-05T02:31:25.665Z,59.5
2019-02-05T02:32:16.216Z,59.5
2019-02-05T02:33:08.555Z,59.4
2019-02-05T02:33:56.300Z,59.4
2019-02-05T02:34:45.882Z,59.4
2019-02-05T02:35:36.108Z,59.4
2019-02-05T02:36:26.274Z,59.4
2019-02-05T02:37:16.899Z,59.4
2019-02-05T02:38:06.954Z,59.4
2019-02-05T02:38:57.178Z,59.4
2019-02-05T02:39:46.726Z,59.4
2019-02-05T02:40:36.804Z,59.4
2019-02-05T02:41:26.171Z,59.3
2019-02-05T02:42:18.244Z,59.3
2019-02-05T02:43:06.212Z,59.3
2019-02-05T02:43:57.007Z,59.4
2019-02-05T02:44:45.741Z,59.5
2019-02-05T02:45:37.130Z,59.7
2019-02-05T02:46:26.704Z,59.8
2019-02-05T02:47:16.765Z,60.1
2019-02-05T02:48:07.387Z,60.3
2019-02-05T02:48:57.698Z,60.5
2019-02-05T02:49:47.441Z,60.7
2019-02-05T02:50:37.500Z,60.9
2019-02-05T02:51:28.671Z,61.1
2019-02-05T02:52:17.939Z,61.1
2019-02-05T02:53:07.478Z,61.4
2019-02-05T02:53:57.559Z,61.6
2019-02-05T02:54:47.838Z,61.7
2019-02-05T02:55:38.016Z,61.8
2019-02-05T02:56:27.143Z,61.9
2019-02-05T02:57:18.773Z,62.1
2019-02-05T02:58:07.732Z,62.3
2019-02-05T02:58:57.910Z,62.3
2019-02-05T02:59:47.158Z,62.4
2019-02-05T03:00:38.153Z,62.6
2019-02-05T03:01:27.784Z,62.7
2019-02-05T03:02:17.858Z,62.8
2019-02-05T03:03:08.685Z,62.9
2019-02-05T03:03:58.353Z,63.1
2019-02-05T03:04:48.278Z,63.1
2019-02-05T03:08:19.972Z,63.6
2019-02-05T03:09:10.005Z,63.6
2019-02-05T03:10:01.757Z,63.7
2019-02-05T03:10:50.415Z,63.9
2019-02-05T03:11:40.249Z,63.9
2019-02-05T03:12:29.984Z,64
2019-02-05T03:13:21.082Z,64.1
2019-02-05T03:14:10.778Z,64.3
2019-02-05T03:15:00.873Z,64.3
2019-02-05T03:15:51.325Z,64.3
2019-02-05T03:16:41.392Z,64.3
2019-02-05T03:17:30.595Z,64.6
2019-02-05T03:18:20.418Z,64.7
2019-02-05T03:19:11.834Z,64.8
2019-02-05T03:20:01.064Z,64.8
2019-02-05T03:20:50.908Z,64.8
2019-02-05T03:21:41.071Z,64.9
2019-02-05T03:22:30.699Z,65
2019-02-05T03:23:21.025Z,65.1
2019-02-05T03:24:11.426Z,65.1
2019-02-05T03:25:01.926Z,65.1
2019-02-05T03:25:51.003Z,65.3
2019-02-05T03:26:41.697Z,65.4
2019-02-05T03:27:31.777Z,65.4
2019-02-05T03:28:21.393Z,65.4
2019-02-05T03:29:11.713Z,65.4
2019-02-05T03:30:01.597Z,65.6
2019-02-05T03:30:56.607Z,65.6
2019-02-05T03:31:41.977Z,65.6
2019-02-05T03:32:32.126Z,65.6
2019-02-05T03:33:22.361Z,65.7
2019-02-05T03:34:11.763Z,65.9
2019-02-05T03:35:02.851Z,65.9
2019-02-05T03:35:52.197Z,65.9
2019-02-05T03:36:44.076Z,65.9
2019-02-05T03:37:32.263Z,66
2019-02-05T03:38:22.060Z,66
2019-02-05T03:39:12.135Z,66.1
2019-02-05T03:40:02.503Z,66.2
2019-02-05T03:40:52.379Z,66.3
2019-02-05T03:41:42.326Z,66.3
2019-02-05T03:42:33.091Z,66.3
2019-02-05T03:43:21.893Z,66.3
2019-02-05T03:44:12.600Z,66.3
2019-02-05T03:45:02.426Z,66.3
2019-02-05T03:45:53.535Z,66.3
2019-02-05T03:46:42.380Z,66.3
2019-02-05T03:47:32.688Z,66.3
2019-02-05T03:48:23.028Z,66.3
2019-02-05T03:49:12.837Z,66.3
2019-02-05T03:50:03.309Z,66.3
2019-02-05T03:50:53.230Z,66.3
2019-02-05T03:51:44.742Z,66.3
2019-02-05T03:52:33.053Z,66.3
2019-02-05T03:53:22.829Z,66.3
2019-02-05T03:54:13.555Z,66.3
2019-02-05T03:55:03.454Z,66.3
2019-02-05T03:55:53.569Z,66.3
2019-02-05T03:56:43.637Z,66.3
2019-02-05T03:59:34.471Z,66.3
2019-02-05T03:59:46.394Z,66.2
2019-02-05T04:00:35.605Z,66.2
2019-02-05T04:01:25.715Z,66.2
2019-02-05T04:02:15.472Z,66.2
2019-02-05T04:03:05.836Z,66.2
2019-02-05T04:03:55.871Z,66.2
2019-02-05T04:04:45.628Z,66.1
2019-02-05T04:05:36.785Z,66.2
2019-02-05T04:06:25.761Z,66.1
2019-02-05T04:07:16.079Z,66.1
2019-02-05T04:08:06.159Z,66.1
2019-02-05T04:08:56.826Z,66.1
2019-02-05T04:09:45.719Z,66.1
2019-02-05T04:10:36.318Z,66.1
2019-02-05T04:11:26.137Z,66.1
2019-02-05T04:12:15.941Z,66.1
2019-02-05T04:13:06.495Z,66.1
2019-02-05T04:13:56.565Z,66.1
2019-02-05T04:14:47.146Z,66.1
2019-02-05T04:15:36.657Z,66
2019-02-05T04:16:26.464Z,66
2019-02-05T04:17:16.237Z,66
2019-02-05T04:18:06.831Z,66
2019-02-05T04:18:56.619Z,66
2019-02-05T04:19:47.004Z,65.9
2019-02-05T04:20:37.025Z,65.9
2019-02-05T04:21:26.789Z,65.9
2019-02-05T04:22:17.134Z,65.9
2019-02-05T04:23:06.642Z,65.9
2019-02-05T04:23:58.796Z,65.9
2019-02-05T04:24:47.046Z,65.9
2019-02-05T04:25:37.501Z,65.9
2019-02-05T04:26:27.153Z,65.9
2019-02-05T04:27:17.458Z,65.9
2019-02-05T04:28:07.597Z,65.9
2019-02-05T04:28:57.633Z,65.9
2019-02-05T04:29:47.646Z,65.9
2019-02-05T04:30:37.736Z,65.9
2019-02-05T04:31:27.796Z,65.8
2019-02-05T04:32:17.575Z,65.8
2019-02-05T04:33:10.003Z,65.8
2019-02-05T04:33:57.700Z,65.8
2019-02-05T04:34:48.014Z,65.8
2019-02-05T04:35:38.060Z,65.8
2019-02-05T04:36:27.846Z,65.8
2019-02-05T04:37:18.193Z,65.8
2019-02-05T04:38:07.731Z,65.8
2019-02-05T04:38:57.901Z,65.8
2019-02-05T04:39:48.372Z,65.8
2019-02-05T04:40:38.454Z,65.8
2019-02-05T04:41:28.474Z,65.7
2019-02-05T04:42:20.382Z,65.7
2019-02-05T04:43:08.055Z,65.7
2019-02-05T04:43:58.100Z,65.7
2019-02-05T04:44:48.432Z,65.7
2019-02-05T04:45:38.820Z,65.7
2019-02-05T04:46:28.937Z,65.6
2019-02-05T04:47:18.603Z,65.6
2019-02-05T04:48:09.331Z,65.6
2019-02-05T04:48:58.997Z,65.6
2019-02-05T04:49:49.074Z,65.6
2019-02-05T04:50:38.844Z,65.6
2019-02-05T04:51:30.218Z,65.6
2019-02-05T04:52:18.702Z,65.6
2019-02-05T04:53:09.339Z,65.6
2019-02-05T04:53:59.359Z,65.6
2019-02-05T04:54:49.502Z,65.6
2019-02-05T04:55:39.187Z,65.6
2019-02-05T04:56:29.362Z,65.6
2019-02-05T04:57:20.866Z,65.6
2019-02-05T04:58:09.657Z,65.5
2019-02-05T04:58:59.414Z,65.5
2019-02-05T04:59:49.764Z,65.5
2019-02-05T05:00:39.866Z,65.5
2019-02-05T05:01:29.946Z,65.5
2019-02-05T05:02:20.052Z,65.5
2019-02-05T05:03:09.990Z,65.4
2019-02-05T05:04:00.296Z,65.4
2019-02-05T05:04:50.121Z,65.4
2019-02-05T05:05:40.203Z,65.4
2019-02-05T05:06:31.976Z,65.4
2019-02-05T05:07:20.326Z,65.4
2019-02-05T05:08:10.329Z,65.4
2019-02-05T05:09:00.942Z,65.4
2019-02-05T05:09:50.462Z,65.4
2019-02-05T05:10:40.533Z,65.4
2019-02-05T05:11:30.304Z,65.4
2019-02-05T05:12:20.835Z,65.4
2019-02-05T05:13:10.704Z,65.4
2019-02-05T05:14:00.778Z,65.3
2019-02-05T05:14:50.546Z,65.3
2019-02-05T05:15:42.135Z,65.3
2019-02-05T05:16:30.919Z,65.3
2019-02-05T05:17:20.765Z,65.3
2019-02-05T05:18:10.518Z,65.3
2019-02-05T05:19:01.617Z,65.3
2019-02-05T05:19:51.193Z,65.3
2019-02-05T05:20:41.206Z,65.3
2019-02-05T05:21:32.689Z,65.3
2019-02-05T05:22:21.330Z,65.3
2019-02-05T05:23:11.382Z,65.3
2019-02-05T05:24:01.677Z,65.2
2019-02-05T05:24:51.380Z,65.3
2019-02-05T05:25:42.077Z,65.3
2019-02-05T05:26:31.544Z,65.2
2019-02-05T05:27:22.597Z,65.2
2019-02-05T05:28:14.079Z,65.2
2019-02-05T05:29:01.839Z,65.2
2019-02-05T05:29:52.352Z,65.2
2019-02-05T05:30:43.044Z,65.1
2019-02-05T05:31:32.672Z,65.1
2019-02-05T05:32:21.954Z,65.1
2019-02-05T05:33:12.597Z,65.1
2019-02-05T05:34:02.699Z,65.1
2019-02-05T05:34:52.722Z,65.1
2019-02-05T05:35:47.942Z,65.1
2019-02-05T05:36:34.590Z,65.1
2019-02-05T05:37:22.734Z,65.1
2019-02-05T05:38:12.921Z,65.1
2019-02-05T05:39:03.007Z,65.1
2019-02-05T05:39:52.654Z,65.1
2019-02-05T05:40:43.166Z,65.1
2019-02-05T05:41:32.886Z,65.1
2019-02-05T05:42:22.847Z,65
2019-02-05T05:43:12.898Z,65
2019-02-05T05:44:03.321Z,65
2019-02-05T05:44:53.166Z,65
2019-02-05T05:45:44.978Z,65
2019-02-05T05:46:32.689Z,65
2019-02-05T05:47:23.276Z,65
2019-02-05T05:48:13.621Z,64.9
2019-02-05T05:49:03.703Z,64.9
2019-02-05T05:49:53.478Z,64.9
2019-02-05T05:50:43.815Z,64.9
2019-02-05T05:51:34.702Z,64.9
2019-02-05T05:52:23.910Z,64.9
2019-02-05T05:53:13.973Z,64.9
2019-02-05T05:54:03.737Z,64.9
2019-02-05T05:54:54.100Z,64.9
2019-02-05T05:55:43.621Z,64.9
2019-02-05T05:56:33.405Z,64.9
2019-02-05T05:57:24.165Z,64.9
2019-02-05T05:58:28.217Z,64.8
2019-02-05T05:59:04.118Z,64.8
2019-02-05T05:59:54.176Z,64.8
2019-02-05T06:00:46.317Z,64.8
2019-02-05T06:01:34.241Z,64.8
2019-02-05T06:02:24.325Z,64.8
2019-02-05T06:03:14.538Z,64.8
2019-02-05T06:04:04.475Z,64.8
2019-02-05T06:06:20.047Z,64.8
2019-02-05T06:07:10.070Z,64.8
2019-02-05T06:08:00.734Z,64.8
2019-02-05T06:08:51.802Z,64.8
2019-02-05T06:09:40.953Z,64.7
2019-02-05T06:10:30.336Z,64.7
2019-02-05T06:11:20.609Z,64.7
2019-02-05T06:12:10.137Z,64.7
2019-02-05T06:13:01.136Z,64.7
2019-02-05T06:13:51.067Z,64.7
2019-02-05T06:14:41.664Z,64.7
2019-02-05T06:15:30.707Z,64.7
2019-02-05T06:16:20.984Z,64.6
2019-02-05T06:17:11.031Z,64.6
2019-02-05T06:18:01.197Z,64.6
2019-02-05T06:18:51.508Z,64.6
2019-02-05T06:19:40.653Z,64.6
2019-02-05T06:20:31.268Z,64.6
2019-02-05T06:21:20.776Z,64.6
2019-02-05T06:22:11.426Z,64.6
2019-02-05T06:23:01.450Z,64.6
2019-02-05T06:23:54.106Z,64.6
2019-02-05T06:24:41.561Z,64.6
2019-02-05T06:25:31.113Z,64.6
2019-02-05T06:26:24.163Z,64.6
2019-02-05T06:27:11.741Z,64.5
2019-02-05T06:28:02.077Z,64.5
2019-02-05T06:28:52.191Z,64.5
2019-02-05T06:29:43.143Z,64.5
2019-02-05T06:30:31.948Z,64.5
2019-02-05T06:31:22.270Z,64.5
2019-02-05T06:32:12.185Z,64.4
2019-02-05T06:33:01.953Z,64.4
2019-02-05T06:33:52.488Z,64.4
2019-02-05T06:34:42.253Z,64.4
2019-02-05T06:35:32.024Z,64.4
2019-02-05T06:36:22.658Z,64.4
2019-02-05T06:37:12.448Z,64.4
2019-02-05T06:38:02.771Z,64.4
2019-02-05T06:38:54.688Z,64.4
2019-02-05T06:39:42.471Z,64.4
2019-02-05T06:40:32.995Z,64.4
2019-02-05T06:41:22.438Z,64.3
2019-02-05T06:42:13.070Z,64.4
2019-02-05T06:43:03.130Z,64.4
2019-02-05T06:43:52.582Z,64.4
2019-02-05T06:44:44.095Z,64.3
2019-02-05T06:45:33.282Z,64.3
2019-02-05T06:46:23.316Z,64.3
2019-02-05T06:47:12.832Z,64.3
2019-02-05T06:48:03.997Z,64.3
2019-02-05T06:48:53.212Z,64.3
2019-02-05T06:49:43.632Z,64.3
2019-02-05T06:50:33.628Z,64.3
2019-02-05T06:51:23.684Z,64.3
2019-02-05T06:52:13.724Z,64.3
2019-02-05T06:53:03.529Z,64.3
2019-02-05T06:53:55.487Z,64.2
2019-02-05T06:54:43.361Z,64.2
2019-02-05T06:55:33.201Z,64.2
2019-02-05T06:56:23.553Z,64.2
2019-02-05T06:57:13.524Z,64.2
2019-02-05T06:58:03.889Z,64.2
2019-02-05T06:58:53.345Z,64.1
2019-02-05T06:59:44.926Z,64.1
2019-02-05T07:00:33.761Z,64.1
2019-02-05T07:01:24.164Z,64.1
2019-02-05T07:02:13.621Z,64.1
2019-02-05T07:03:05.086Z,64.1
2019-02-05T07:03:54.272Z,64.1
2019-02-05T07:06:19.941Z,64.1
2019-02-05T07:07:10.017Z,64.1
2019-02-05T07:08:00.351Z,64.1
2019-02-05T07:08:50.926Z,64.1
2019-02-05T07:09:40.791Z,64.1
2019-02-05T07:10:30.832Z,64.1
2019-02-05T07:11:20.668Z,64
2019-02-05T07:12:10.910Z,64
2019-02-05T07:13:00.765Z,64
2019-02-05T07:13:50.773Z,64
2019-02-05T07:14:43.030Z,64
2019-02-05T07:15:31.165Z,64
2019-02-05T07:16:20.947Z,63.9
2019-02-05T07:17:10.415Z,64
2019-02-05T07:18:01.331Z,63.9
2019-02-05T07:18:50.542Z,63.9
2019-02-05T07:19:41.438Z,63.9
2019-02-05T07:20:31.802Z,63.9
2019-02-05T07:21:21.270Z,63.9
2019-02-05T07:22:11.657Z,63.9
2019-02-05T07:23:01.732Z,63.9
2019-02-05T07:23:52.145Z,63.9
2019-02-05T07:24:41.539Z,63.9
2019-02-05T07:25:31.582Z,63.9
2019-02-05T07:26:21.617Z,63.9
2019-02-05T07:27:11.712Z,63.8
2019-02-05T07:28:01.518Z,63.8
2019-02-05T07:29:05.371Z,63.8
2019-02-05T07:29:44.124Z,63.8
2019-02-05T07:30:32.170Z,63.8
2019-02-05T07:31:21.985Z,63.8
2019-02-05T07:32:12.351Z,63.8
2019-02-05T07:33:02.119Z,63.8
2019-02-05T07:33:52.259Z,63.8
2019-02-05T07:34:42.675Z,63.8
2019-02-05T07:35:33.806Z,63.8
2019-02-05T07:36:22.690Z,63.8
2019-02-05T07:37:12.720Z,63.8
2019-02-05T07:38:02.738Z,63.7
2019-02-05T07:38:51.999Z,63.7
2019-02-05T07:39:41.787Z,63.7
2019-02-05T07:40:32.754Z,63.7
2019-02-05T07:41:24.281Z,63.7
2019-02-05T07:42:12.221Z,63.7
2019-02-05T07:43:02.372Z,63.6
2019-02-05T07:43:53.214Z,63.6
2019-02-05T07:44:43.899Z,63.6
2019-02-05T07:45:32.836Z,63.6
2019-02-05T07:46:23.026Z,63.6
2019-02-05T07:47:14.638Z,63.6
2019-02-05T07:48:02.907Z,63.6
2019-02-05T07:48:53.242Z,63.6
2019-02-05T07:49:43.546Z,63.6
2019-02-05T07:50:33.098Z,63.6
2019-02-05T07:51:23.698Z,63.6
2019-02-05T07:52:13.488Z,63.6
2019-02-05T07:53:03.472Z,63.6
2019-02-05T07:53:53.055Z,63.6
2019-02-05T07:54:43.900Z,63.5
2019-02-05T07:55:33.397Z,63.5
2019-02-05T07:56:24.670Z,63.5
2019-02-05T07:57:13.819Z,63.5
2019-02-05T07:58:03.870Z,63.5
2019-02-05T07:58:53.905Z,63.4
2019-02-05T07:59:47.052Z,63.4
2019-02-05T08:00:34.400Z,63.4
2019-02-05T08:01:24.155Z,63.4
2019-02-05T08:02:16.043Z,63.4
2019-02-05T08:03:04.250Z,63.4
2019-02-05T08:03:54.090Z,63.4
2019-02-05T08:04:44.363Z,63.4
2019-02-05T08:05:34.634Z,63.4
2019-02-05T08:06:24.555Z,63.4
2019-02-05T08:07:13.967Z,63.4
2019-02-05T08:08:19.865Z,63.4
2019-02-05T08:08:54.615Z,63.4
2019-02-05T08:09:44.680Z,63.4
2019-02-05T08:10:34.772Z,63.3
2019-02-05T08:11:24.679Z,63.3
2019-02-05T08:12:14.626Z,63.3
2019-02-05T08:13:04.980Z,63.3
2019-02-05T08:13:55.882Z,63.3
2019-02-05T08:14:45.072Z,63.3
2019-02-05T08:15:35.134Z,63.3
2019-02-05T08:16:25.141Z,63.3
2019-02-05T08:17:15.529Z,63.3
2019-02-05T08:18:05.014Z,63.3
2019-02-05T08:18:55.039Z,63.3
2019-02-05T08:19:46.831Z,63.3
2019-02-05T08:20:35.546Z,63.3
2019-02-05T08:21:25.344Z,63.2
2019-02-05T08:22:15.807Z,63.2
2019-02-05T08:23:05.949Z,63.2
2019-02-05T08:23:55.634Z,63.2
2019-02-05T08:24:45.959Z,63.2
2019-02-05T08:25:37.846Z,63.2
2019-02-05T08:26:25.847Z,63.1
2019-02-05T08:27:15.163Z,63.1
2019-02-05T08:28:06.111Z,63.1
2019-02-05T08:28:56.276Z,63.1
2019-02-05T08:29:45.770Z,63.1
2019-02-05T08:30:36.153Z,63.1
2019-02-05T08:31:26.828Z,63.1
2019-02-05T08:32:16.551Z,63.1
2019-02-05T08:33:05.810Z,63.1
2019-02-05T08:33:56.358Z,63.1
2019-02-05T08:34:48.288Z,63.1
2019-02-05T08:35:36.197Z,63.1
2019-02-05T08:36:26.545Z,63.1
2019-02-05T08:37:16.988Z,63
2019-02-05T08:38:06.718Z,63
2019-02-05T08:38:56.988Z,63
2019-02-05T08:39:45.960Z,63
2019-02-05T08:40:39.172Z,63
2019-02-05T08:41:26.347Z,63
2019-02-05T08:42:17.012Z,62.9
2019-02-05T08:43:06.720Z,62.9
2019-02-05T08:43:57.320Z,62.9
2019-02-05T08:44:47.120Z,62.9
2019-02-05T08:45:37.315Z,62.9
2019-02-05T08:46:27.799Z,62.9
2019-02-05T08:47:16.749Z,62.9
2019-02-05T08:48:07.352Z,62.9
2019-02-05T08:48:57.419Z,62.9
2019-02-05T08:49:47.560Z,62.9
2019-02-05T08:50:37.599Z,62.9
2019-02-05T08:51:26.729Z,62.9
2019-02-05T08:52:17.881Z,62.9
2019-02-05T08:53:07.431Z,62.8
2019-02-05T08:53:57.764Z,62.8
2019-02-05T08:54:48.089Z,62.8
2019-02-05T08:55:38.506Z,62.8
2019-02-05T08:56:27.991Z,62.8
2019-02-05T08:57:18.011Z,62.8
2019-02-05T08:58:07.646Z,62.8
2019-02-05T08:58:58.386Z,62.8
2019-02-05T08:59:48.181Z,62.8
2019-02-05T09:00:38.509Z,62.8
2019-02-05T09:01:30.651Z,62.8
2019-02-05T09:02:17.793Z,62.8
2019-02-05T09:03:08.382Z,62.8
2019-02-05T09:03:58.221Z,62.7
2019-02-05T09:04:48.506Z,62.7
2019-02-05T09:05:38.388Z,62.7
2019-02-05T09:06:28.906Z,62.7
2019-02-05T09:07:20.073Z,62.7
2019-02-05T09:08:08.831Z,62.7
2019-02-05T09:08:58.788Z,62.7
2019-02-05T09:09:49.155Z,62.6
2019-02-05T09:10:38.641Z,62.6
2019-02-05T09:11:28.500Z,62.6
2019-02-05T09:12:22.135Z,62.6
2019-02-05T09:13:09.078Z,62.6
2019-02-05T09:14:12.054Z,62.6
2019-02-05T09:14:49.023Z,62.6
2019-02-05T09:15:39.030Z,62.6
2019-02-05T09:16:31.325Z,62.6
2019-02-05T09:17:19.114Z,62.6
2019-02-05T09:18:08.677Z,62.5
2019-02-05T09:18:59.901Z,62.5
2019-02-05T09:19:49.301Z,62.5
2019-02-05T09:20:38.782Z,62.5
2019-02-05T09:21:29.957Z,62.5
2019-02-05T09:22:21.232Z,62.5
2019-02-05T09:23:10.179Z,62.5
2019-02-05T09:23:59.571Z,62.4
2019-02-05T09:24:49.929Z,62.4
2019-02-05T09:25:40.011Z,62.4
2019-02-05T09:26:29.712Z,62.4
2019-02-05T09:27:20.337Z,62.4
2019-02-05T09:28:11.027Z,62.4
2019-02-05T09:29:00.507Z,62.4
2019-02-05T09:29:50.523Z,62.4
2019-02-05T09:30:40.602Z,62.4
2019-02-05T09:31:31.499Z,62.4
2019-02-05T09:32:20.686Z,62.4
2019-02-05T09:33:10.803Z,62.4
2019-02-05T09:34:00.264Z,62.4
2019-02-05T09:34:50.964Z,62.4
2019-02-05T09:35:40.384Z,62.3
2019-02-05T09:36:30.519Z,62.3
2019-02-05T09:37:22.451Z,62.3
2019-02-05T09:38:26.004Z,62.3
2019-02-05T09:38:59.881Z,62.3
2019-02-05T09:39:51.226Z,62.3
2019-02-05T09:40:40.766Z,62.3
2019-02-05T09:41:30.576Z,62.3
2019-02-05T09:42:20.428Z,62.3
2019-02-05T09:43:12.801Z,62.3
2019-02-05T09:44:00.961Z,62.3
2019-02-05T09:44:51.414Z,62.2
2019-02-05T09:45:41.651Z,62.2
2019-02-05T09:46:31.708Z,62.2
2019-02-05T09:47:21.528Z,62.2
2019-02-05T09:48:11.435Z,62.2
2019-02-05T09:49:01.181Z,62.2
2019-02-05T09:49:51.375Z,62.1
2019-02-05T09:50:48.958Z,62.1
2019-02-05T09:51:32.036Z,62.1
2019-02-05T09:52:23.745Z,62.1
2019-02-05T09:53:12.225Z,62.1
2019-02-05T09:54:01.963Z,62.1
2019-02-05T09:54:51.696Z,62.1
2019-02-05T09:55:42.105Z,62.1
2019-02-05T09:56:32.130Z,62.1
2019-02-05T09:57:22.611Z,62.1
2019-02-05T09:58:13.770Z,62.1
2019-02-05T09:59:02.298Z,62
2019-02-05T09:59:52.095Z,62.1
2019-02-05T10:00:42.580Z,62
2019-02-05T10:01:31.934Z,62
2019-02-05T10:02:23.045Z,62
2019-02-05T10:03:12.988Z,62
2019-02-05T10:04:03.249Z,62
2019-02-05T10:04:52.748Z,62
2019-02-05T10:07:34.955Z,61.9
2019-02-05T10:08:11.767Z,61.9
2019-02-05T10:09:01.507Z,61.9
2019-02-05T10:10:07.308Z,61.9
2019-02-05T10:10:41.085Z,61.9
2019-02-05T10:11:32.064Z,61.9
2019-02-05T10:12:29.489Z,61.9
2019-02-05T10:14:33.994Z,61.9
2019-02-05T10:15:08.199Z,61.9
2019-02-05T10:16:05.013Z,61.8
2019-02-05T10:16:54.737Z,61.8
2019-02-05T10:18:16.852Z,61.8
2019-02-05T10:18:48.201Z,61.8
2019-02-05T10:19:36.026Z,61.8
2019-02-05T10:20:40.864Z,61.8
2019-02-05T10:21:15.906Z,61.8
2019-02-05T10:22:43.268Z,61.8
2019-02-05T10:23:32.120Z,61.8
2019-02-05T10:24:08.113Z,61.8
2019-02-05T10:24:56.945Z,61.7
2019-02-05T10:26:08.237Z,61.7
2019-02-05T10:26:52.468Z,61.7
2019-02-05T10:27:42.013Z,61.7
2019-02-05T10:28:32.342Z,61.7
2019-02-05T10:29:22.345Z,61.7
2019-02-05T10:30:11.608Z,61.6
2019-02-05T10:31:01.430Z,61.6
2019-02-05T10:32:07.036Z,61.6
2019-02-05T10:32:42.374Z,61.6
2019-02-05T10:33:32.692Z,61.6
2019-02-05T10:34:34.847Z,61.6
2019-02-05T10:35:14.430Z,61.6
2019-02-05T10:36:05.445Z,61.6
2019-02-05T10:36:52.380Z,61.6
2019-02-05T10:37:57.149Z,61.6
2019-02-05T10:38:33.007Z,61.6
2019-02-05T10:39:22.973Z,61.5
2019-02-05T10:40:12.976Z,61.6
2019-02-05T10:41:03.765Z,61.5
2019-02-05T10:41:52.990Z,61.5
2019-02-05T10:42:45.573Z,61.5
2019-02-05T10:43:33.155Z,61.5
2019-02-05T10:44:23.610Z,61.5
2019-02-05T10:46:03.238Z,61.4
2019-02-05T10:46:53.376Z,61.4
2019-02-05T10:47:43.790Z,61.4
2019-02-05T10:48:33.730Z,61.4
2019-02-05T10:49:23.694Z,61.4
2019-02-05T10:50:16.092Z,61.4
2019-02-05T10:51:03.409Z,61.4
2019-02-05T10:51:52.954Z,61.4
2019-02-05T10:52:44.052Z,61.4
2019-02-05T10:53:34.109Z,61.4
2019-02-05T10:54:24.164Z,61.4
2019-02-05T10:55:14.216Z,61.4
2019-02-05T10:56:05.448Z,61.4
2019-02-05T10:56:54.111Z,61.3
2019-02-05T10:57:44.399Z,61.3
2019-02-05T10:58:33.895Z,61.3
2019-02-05T10:59:24.221Z,61.3
2019-02-05T11:00:14.341Z,61.3
2019-02-05T11:01:04.836Z,61.3
2019-02-05T11:01:55.036Z,61.3
2019-02-05T11:02:45.301Z,61.3
2019-02-05T11:03:34.510Z,61.3
2019-02-05T11:04:24.880Z,61.3
2019-02-05T11:05:15.641Z,61.3
2019-02-05T11:06:04.413Z,61.3
2019-02-05T11:06:55.033Z,61.3
2019-02-05T11:07:44.566Z,61.2
2019-02-05T11:08:49.783Z,61.2
2019-02-05T11:09:24.903Z,61.2
2019-02-05T11:10:15.000Z,61.2
2019-02-05T11:11:07.065Z,61.2
2019-02-05T11:11:55.510Z,61.2
2019-02-05T11:12:45.175Z,61.1
2019-02-05T11:13:35.240Z,61.1
2019-02-05T11:14:25.435Z,61.1
2019-02-05T11:15:15.320Z,61.1
2019-02-05T11:16:05.913Z,61.1
2019-02-05T11:16:56.338Z,61.1
2019-02-05T11:17:45.235Z,61.1
2019-02-05T11:18:35.882Z,61.1
2019-02-05T11:19:25.696Z,61.1
2019-02-05T11:20:16.497Z,61.1